createdAt,value
2018-11-23T00:00:51.480Z,52.87
2018-11-23T00:03:20.749Z,53.17
2018-11-23T00:05:49.974Z,51.30
2018-11-23T00:08:19.842Z,53.53
2018-11-23T00:10:49.133Z,53.53
2018-11-23T00:13:18.494Z,54.87
2018-11-23T00:15:47.806Z,52.03
2018-11-23T00:18:17.065Z,54.67
2018-11-23T00:20:46.330Z,53.30
2018-11-23T00:23:15.706Z,54.50
2018-11-23T00:25:44.945Z,54.10
2018-11-23T00:28:14.955Z,53.97
2018-11-23T00:30:44.232Z,52.70
2018-11-23T00:33:13.525Z,54.50
2018-11-23T00:35:42.922Z,54.57
2018-11-23T00:38:12.721Z,52.20
2018-11-23T00:40:42.017Z,54.43
2018-11-23T00:43:11.249Z,56.13
2018-11-23T00:45:43.072Z,55.43
2018-11-23T00:48:09.946Z,54.27
2018-11-23T00:50:39.417Z,55.27
2018-11-23T00:53:08.666Z,54.33
2018-11-23T00:55:38.100Z,55.93
2018-11-23T00:58:07.335Z,53.60
2018-11-23T01:00:36.667Z,55.13
2018-11-23T01:03:06.418Z,54.43
2018-11-23T01:05:35.851Z,54.67
2018-11-23T01:08:05.334Z,54.13
2018-11-23T01:10:34.715Z,55.40
2018-11-23T01:13:04.016Z,55.00
2018-11-23T01:15:33.293Z,53.73
2018-11-23T01:18:02.642Z,56.23
2018-11-23T01:20:32.083Z,53.00
2018-11-23T01:23:01.357Z,53.07
2018-11-23T01:25:30.724Z,55.50
2018-11-23T01:28:00.037Z,55.07
2018-11-23T01:30:30.703Z,54.37
2018-11-23T01:33:00.038Z,55.10
2018-11-23T01:35:29.421Z,55.87
2018-11-23T01:37:58.731Z,53.27
2018-11-23T01:40:29.390Z,55.00
2018-11-23T01:42:59.346Z,53.13
2018-11-23T01:45:28.641Z,55.23
2018-11-23T01:47:57.896Z,53.87
2018-11-23T01:50:30.133Z,56.97
2018-11-23T01:52:59.698Z,56.70
2018-11-23T01:55:29.006Z,57.20
2018-11-23T01:57:58.323Z,58.23
2018-11-23T02:00:28.652Z,59.30
2018-11-23T02:02:58.236Z,56.47
2018-11-23T02:05:27.514Z,56.83
2018-11-23T02:07:56.816Z,56.10
2018-11-23T02:10:26.828Z,53.40
2018-11-23T02:12:56.151Z,53.63
2018-11-23T02:15:25.417Z,54.40
2018-11-23T02:17:54.678Z,52.90
2018-11-23T02:20:24.144Z,54.60
2018-11-23T02:22:53.441Z,53.67
2018-11-23T02:25:22.701Z,53.83
2018-11-23T02:27:51.982Z,55.17
2018-11-23T02:30:25.650Z,54.60
2018-11-23T02:32:55.025Z,52.50
2018-11-23T02:35:24.430Z,52.90
2018-11-23T02:37:53.714Z,53.30
2018-11-23T02:40:23.056Z,53.10
2018-11-23T02:42:52.361Z,52.60
2018-11-23T02:45:22.928Z,54.27
2018-11-23T02:47:52.657Z,53.20
2018-11-23T02:50:21.986Z,52.20
2018-11-23T02:52:51.531Z,53.40
2018-11-23T02:55:21.449Z,54.67
2018-11-23T02:57:50.672Z,53.40
2018-11-23T03:00:21.980Z,54.80
2018-11-23T03:02:51.566Z,53.63
2018-11-23T03:05:22.213Z,54.00
2018-11-23T03:07:51.531Z,55.70
2018-11-23T03:10:20.881Z,53.40
2018-11-23T03:12:50.170Z,53.37
2018-11-23T03:15:20.235Z,54.27
2018-11-23T03:17:50.059Z,53.77
2018-11-23T03:20:20.594Z,53.13
2018-11-23T03:22:49.895Z,54.30
2018-11-23T03:25:19.245Z,55.50
2018-11-23T03:27:48.587Z,52.30
2018-11-23T03:30:20.955Z,52.73
2018-11-23T03:32:50.978Z,55.57
2018-11-23T03:35:21.845Z,50.50
2018-11-23T03:37:51.914Z,53.37
2018-11-23T03:40:21.242Z,52.67
2018-11-23T03:42:50.526Z,55.07
2018-11-23T03:45:19.767Z,54.93
2018-11-23T03:47:49.122Z,53.67
2018-11-23T03:50:18.568Z,53.07
2018-11-23T03:52:48.051Z,54.80
2018-11-23T03:55:17.358Z,53.40
2018-11-23T03:57:46.657Z,52.33
2018-11-23T04:00:18.168Z,55.03
2018-11-23T04:02:47.696Z,55.00
2018-11-23T04:05:17.533Z,54.57
2018-11-23T04:07:47.011Z,53.20
2018-11-23T04:10:16.966Z,53.83
2018-11-23T04:12:46.803Z,53.67
2018-11-23T04:15:16.501Z,53.33
2018-11-23T04:17:45.790Z,54.27
2018-11-23T04:20:16.518Z,53.03
2018-11-23T04:22:45.814Z,54.10
2018-11-23T04:25:15.490Z,54.37
2018-11-23T04:27:44.990Z,53.93
2018-11-23T04:30:16.238Z,54.00
2018-11-23T04:32:46.499Z,52.53
2018-11-23T04:35:17.137Z,52.23
2018-11-23T04:37:47.308Z,53.50
2018-11-23T04:40:17.666Z,55.57
2018-11-23T04:42:46.961Z,53.60
2018-11-23T04:45:17.255Z,54.43
2018-11-23T04:47:46.589Z,53.97
2018-11-23T04:50:16.522Z,54.97
2018-11-23T04:52:45.748Z,52.70
2018-11-23T04:55:15.108Z,51.63
2018-11-23T04:57:44.947Z,52.80
2018-11-23T05:00:15.842Z,51.83
2018-11-23T05:02:46.093Z,54.07
2018-11-23T05:05:15.647Z,51.37
2018-11-23T05:07:46.133Z,55.07
2018-11-23T05:10:16.325Z,54.93
2018-11-23T05:12:45.705Z,53.63
2018-11-23T05:15:16.239Z,55.00
2018-11-23T05:17:45.535Z,53.97
2018-11-23T05:20:15.481Z,53.40
2018-11-23T05:22:45.210Z,53.77
2018-11-23T05:25:15.917Z,54.40
2018-11-23T05:27:45.427Z,51.83
2018-11-23T05:30:22.569Z,54.00
2018-11-23T05:32:51.855Z,55.03
2018-11-23T05:35:21.118Z,52.40
2018-11-23T05:37:50.410Z,51.53
2018-11-23T05:40:20.728Z,51.43
2018-11-23T05:42:50.140Z,51.40
2018-11-23T05:45:21.578Z,51.50
2018-11-23T05:47:51.115Z,53.93
2018-11-23T05:50:23.689Z,53.67
2018-11-23T05:52:53.097Z,53.43
2018-11-23T05:55:22.398Z,52.93
2018-11-23T05:57:53.047Z,54.17
2018-11-23T06:00:23.916Z,52.47
2018-11-23T06:02:53.373Z,53.60
2018-11-23T06:05:22.749Z,54.03
2018-11-23T06:07:52.076Z,53.87
2018-11-23T06:10:22.561Z,53.23
2018-11-23T06:12:52.103Z,52.50
2018-11-23T06:15:22.501Z,53.33
2018-11-23T06:17:52.021Z,53.73
2018-11-23T06:20:23.080Z,53.27
2018-11-23T06:22:53.173Z,53.17
2018-11-23T06:25:31.103Z,51.87
2018-11-23T06:28:00.382Z,51.33
2018-11-23T06:30:29.657Z,51.27
2018-11-23T06:33:10.991Z,53.33
2018-11-23T06:35:40.292Z,52.13
2018-11-23T06:38:09.678Z,53.20
2018-11-23T06:40:38.934Z,52.27
2018-11-23T06:43:08.264Z,54.77
2018-11-23T06:45:41.568Z,55.10
2018-11-23T06:48:11.284Z,55.37
2018-11-23T06:50:40.609Z,54.87
2018-11-23T06:53:10.217Z,54.53
2018-11-23T06:55:39.473Z,53.63
2018-11-23T06:58:08.773Z,54.57
2018-11-23T07:00:38.161Z,52.17
2018-11-23T07:03:07.444Z,50.80
2018-11-23T07:05:37.609Z,51.00
2018-11-23T07:08:07.714Z,49.17
2018-11-23T07:10:37.023Z,47.00
2018-11-23T07:13:07.107Z,46.83
2018-11-23T07:15:36.452Z,46.20
2018-11-23T07:18:06.286Z,46.93
2018-11-23T07:20:35.645Z,47.80
2018-11-23T07:23:05.266Z,50.07
2018-11-23T07:25:34.580Z,47.27
2018-11-23T07:28:04.129Z,51.23
2018-11-23T07:30:33.473Z,50.47
2018-11-23T07:33:02.748Z,49.13
2018-11-23T07:35:32.895Z,49.80
2018-11-23T07:38:02.196Z,49.37
2018-11-23T07:40:44.357Z,51.10
2018-11-23T07:43:14.740Z,51.80
2018-11-23T07:45:44.167Z,51.33
2018-11-23T07:48:13.599Z,52.40
2018-11-23T07:50:42.918Z,52.10
2018-11-23T07:53:12.444Z,53.73
2018-11-23T07:55:41.877Z,52.70
2018-11-23T07:58:11.592Z,54.37
2018-11-23T08:00:40.941Z,54.50
2018-11-23T08:03:10.209Z,54.10
2018-11-23T08:05:39.526Z,55.70
2018-11-23T08:08:08.856Z,53.63
2018-11-23T08:10:38.193Z,56.10
2018-11-23T08:13:07.476Z,55.23
2018-11-23T08:15:36.763Z,56.13
2018-11-23T08:18:06.199Z,57.43
2018-11-23T08:20:35.469Z,57.67
2018-11-23T08:23:04.787Z,57.13
2018-11-23T08:25:34.175Z,57.77
2018-11-23T08:28:03.453Z,60.07
2018-11-23T08:30:33.142Z,59.57
2018-11-23T08:33:02.573Z,59.87
2018-11-23T08:35:31.836Z,61.73
2018-11-23T08:38:01.303Z,58.23
2018-11-23T08:40:30.627Z,60.90
2018-11-23T08:43:00.061Z,61.10
2018-11-23T08:45:29.446Z,61.27
2018-11-23T08:47:58.837Z,63.30
2018-11-23T08:50:29.251Z,65.73
2018-11-23T08:52:59.374Z,65.33
2018-11-23T08:55:28.722Z,65.43
2018-11-23T08:57:58.006Z,65.10
2018-11-23T09:00:28.429Z,66.30
2018-11-23T09:02:59.220Z,69.03
2018-11-23T09:05:28.553Z,65.67
2018-11-23T09:07:58.362Z,66.93
2018-11-23T09:10:29.346Z,65.80
2018-11-23T09:13:00.246Z,62.77
2018-11-23T09:15:29.984Z,62.83
2018-11-23T09:17:59.293Z,62.97
2018-11-23T09:20:28.599Z,62.47
2018-11-23T09:22:58.800Z,60.70
2018-11-23T09:25:28.876Z,58.93
2018-11-23T09:27:58.183Z,60.03
2018-11-23T09:30:27.596Z,59.40
2018-11-23T09:33:00.056Z,60.17
2018-11-23T09:35:29.754Z,57.97
2018-11-23T09:37:59.045Z,56.70
2018-11-23T09:40:29.605Z,55.37
2018-11-23T09:42:58.925Z,56.73
2018-11-23T09:45:29.744Z,56.07
2018-11-23T09:48:00.495Z,54.30
2018-11-23T09:50:30.729Z,53.90
2018-11-23T09:53:02.393Z,53.40
2018-11-23T09:55:33.004Z,53.20
2018-11-23T09:58:02.375Z,50.97
2018-11-23T10:00:34.847Z,51.87
2018-11-23T10:03:04.055Z,52.23
2018-11-23T10:08:04.803Z,50.60
2018-11-23T10:10:34.123Z,51.67
2018-11-23T10:13:03.561Z,48.37
2018-11-23T10:15:33.420Z,48.23
2018-11-23T10:18:02.822Z,48.63
2018-11-23T10:20:33.424Z,47.60
2018-11-23T10:23:02.731Z,47.97
2018-11-23T10:25:33.537Z,46.80
2018-11-23T10:28:02.845Z,45.00
2018-11-23T10:30:33.418Z,45.27
2018-11-23T10:33:04.186Z,45.33
2018-11-23T10:35:33.517Z,44.57
2018-11-23T10:38:04.137Z,44.53
2018-11-23T10:40:39.694Z,44.47
2018-11-23T10:43:09.996Z,43.40
2018-11-23T10:45:39.438Z,43.13
2018-11-23T10:48:09.305Z,42.83
2018-11-23T10:50:40.200Z,42.13
2018-11-23T10:53:09.558Z,42.00
2018-11-23T10:55:39.103Z,40.20
2018-11-23T10:58:08.503Z,41.30
2018-11-23T11:00:43.074Z,40.93
2018-11-23T11:03:17.981Z,41.80
2018-11-23T11:05:52.588Z,40.00
2018-11-23T11:08:21.919Z,40.03
2018-11-23T11:10:51.184Z,40.00
2018-11-23T11:13:20.490Z,39.57
2018-11-23T11:15:50.226Z,38.20
2018-11-23T11:18:19.519Z,38.87
2018-11-23T11:20:48.731Z,39.93
2018-11-23T11:23:17.988Z,40.00
2018-11-23T11:25:48.004Z,41.07
2018-11-23T11:28:17.321Z,38.70
2018-11-23T11:30:46.650Z,39.63
2018-11-23T11:33:15.960Z,39.43
2018-11-23T11:35:45.181Z,39.07
2018-11-23T11:38:15.613Z,39.10
2018-11-23T11:40:45.524Z,37.47
2018-11-23T11:43:14.865Z,37.13
2018-11-23T11:45:44.213Z,38.50
2018-11-23T11:48:13.609Z,39.30
2018-11-23T11:50:42.848Z,43.67
2018-11-23T11:53:12.175Z,43.23
2018-11-23T11:55:41.432Z,44.27
2018-11-23T11:58:10.815Z,44.03
2018-11-23T12:00:40.618Z,43.03
2018-11-23T12:03:10.086Z,42.60
2018-11-23T12:05:39.608Z,42.57
2018-11-23T12:08:08.878Z,43.87
2018-11-23T12:10:38.165Z,44.00
2018-11-23T12:13:08.197Z,42.43
2018-11-23T12:15:37.450Z,44.83
2018-11-23T12:18:06.770Z,42.87
2018-11-23T12:20:36.022Z,44.50
2018-11-23T12:23:05.748Z,44.67
2018-11-23T12:25:35.021Z,44.37
2018-11-23T12:28:04.442Z,41.90
2018-11-23T12:30:33.752Z,43.40
2018-11-23T12:33:03.073Z,44.10
2018-11-23T12:35:32.328Z,44.73
2018-11-23T12:38:01.621Z,43.47
2018-11-23T12:40:30.962Z,42.33
2018-11-23T12:43:00.283Z,41.67
2018-11-23T12:45:30.183Z,41.47
2018-11-23T12:47:59.513Z,42.83
2018-11-23T12:50:29.008Z,42.73
2018-11-23T12:53:01.551Z,41.93
2018-11-23T12:55:27.629Z,41.13
2018-11-23T12:57:57.114Z,40.50
2018-11-23T13:00:27.708Z,41.00
2018-11-23T13:02:58.556Z,39.37
2018-11-23T13:05:28.780Z,41.73
2018-11-23T13:07:59.502Z,42.63
2018-11-23T13:10:29.222Z,39.17
2018-11-23T13:12:59.435Z,39.93
2018-11-23T13:15:28.776Z,40.33
2018-11-23T13:17:58.858Z,39.10
2018-11-23T13:20:28.208Z,38.17
2018-11-23T13:22:57.590Z,38.80
2018-11-23T13:25:29.323Z,40.47
2018-11-23T13:27:58.910Z,38.50
2018-11-23T13:30:30.092Z,38.90
2018-11-23T13:32:59.326Z,42.13
2018-11-23T13:35:28.732Z,41.33
2018-11-23T13:37:58.100Z,41.23
2018-11-23T13:40:28.599Z,41.30
2018-11-23T13:42:58.809Z,42.33
2018-11-23T13:45:29.733Z,41.33
2018-11-23T13:47:59.090Z,40.83
2018-11-23T13:50:28.665Z,42.63
2018-11-23T13:53:00.410Z,42.30
2018-11-23T13:55:29.793Z,40.67
2018-11-23T13:57:59.065Z,41.87
2018-11-23T14:00:29.449Z,43.33
2018-11-23T14:02:58.768Z,44.07
2018-11-23T14:05:29.680Z,43.73
2018-11-23T14:08:00.116Z,42.43
2018-11-23T14:10:30.041Z,40.20
2018-11-23T14:12:59.713Z,40.90
2018-11-23T14:15:31.031Z,42.43
2018-11-23T14:18:00.891Z,42.30
2018-11-23T14:20:30.403Z,42.03
2018-11-23T14:22:59.690Z,41.23
2018-11-23T14:25:30.239Z,41.43
2018-11-23T14:27:59.775Z,40.63
2018-11-23T14:30:30.701Z,40.87
2018-11-23T14:33:00.733Z,40.00
2018-11-23T14:35:31.003Z,41.30
2018-11-23T14:38:00.834Z,40.20
2018-11-23T14:40:30.225Z,42.47
2018-11-23T14:43:00.648Z,39.20
2018-11-23T14:45:32.114Z,39.63
2018-11-23T14:48:04.773Z,40.23
2018-11-23T14:50:35.428Z,40.00
2018-11-23T14:53:04.784Z,41.10
2018-11-23T14:55:34.135Z,42.97
2018-11-23T14:58:03.387Z,42.43
2018-11-23T15:00:34.186Z,41.67
2018-11-23T15:03:04.603Z,42.97
2018-11-23T15:05:34.229Z,46.23
2018-11-23T15:08:04.274Z,45.80
2018-11-23T15:10:34.676Z,45.40
2018-11-23T15:13:04.962Z,45.03
2018-11-23T15:15:35.789Z,46.40
2018-11-23T15:18:05.582Z,47.67
2018-11-23T15:20:38.157Z,49.63
2018-11-23T15:23:08.981Z,51.10
2018-11-23T15:25:38.702Z,49.03
2018-11-23T15:28:09.659Z,52.17
2018-11-23T15:30:39.732Z,51.50
2018-11-23T15:33:10.379Z,51.63
2018-11-23T15:35:40.595Z,52.93
2018-11-23T15:38:11.871Z,53.30
2018-11-23T15:40:42.062Z,53.07
2018-11-23T15:43:12.761Z,53.43
2018-11-23T15:45:42.263Z,54.00
2018-11-23T15:48:12.070Z,51.70
2018-11-23T15:50:42.315Z,53.07
2018-11-23T15:53:13.162Z,54.17
2018-11-23T15:55:42.685Z,52.47
2018-11-23T15:58:13.424Z,52.97
2018-11-23T16:00:44.828Z,53.90
2018-11-23T16:03:15.065Z,52.40
2018-11-23T16:05:44.480Z,50.83
2018-11-23T16:08:15.399Z,52.33
2018-11-23T16:10:44.716Z,52.30
2018-11-23T16:13:14.035Z,54.20
2018-11-23T16:15:43.473Z,52.10
2018-11-23T16:18:13.472Z,51.33
2018-11-23T16:20:44.225Z,53.97
2018-11-23T16:23:14.992Z,52.30
2018-11-23T16:25:45.140Z,53.70
2018-11-23T16:28:14.765Z,53.83
2018-11-23T16:30:45.579Z,53.67
2018-11-23T16:33:16.678Z,52.37
2018-11-23T16:35:46.204Z,52.80
2018-11-23T16:38:17.718Z,54.93
2018-11-23T16:40:55.905Z,54.37
2018-11-23T16:43:25.339Z,51.60
2018-11-23T16:45:54.680Z,54.93
2018-11-23T16:48:23.955Z,54.47
2018-11-23T16:50:53.317Z,53.93
2018-11-23T16:53:22.715Z,56.17
2018-11-23T16:55:52.083Z,54.53
2018-11-23T16:58:21.396Z,56.07
2018-11-23T17:00:51.279Z,56.53
2018-11-23T17:03:21.812Z,57.47
2018-11-23T17:05:53.391Z,57.53
2018-11-23T17:08:22.761Z,56.80
2018-11-23T17:10:52.167Z,57.70
2018-11-23T17:13:22.215Z,58.60
2018-11-23T17:15:51.516Z,57.00
2018-11-23T17:18:20.816Z,56.50
2018-11-23T17:20:50.197Z,56.03
2018-11-23T17:23:19.499Z,58.23
2018-11-23T17:25:48.865Z,56.50
2018-11-23T17:28:18.942Z,54.70
2018-11-23T17:30:48.342Z,57.40
2018-11-23T17:33:17.649Z,53.30
2018-11-23T17:35:47.006Z,54.03
2018-11-23T17:38:16.366Z,55.33
2018-11-23T17:40:45.683Z,53.50
2018-11-23T17:43:15.045Z,55.17
2018-11-23T17:45:44.389Z,53.80
2018-11-23T17:48:13.702Z,53.03
2018-11-23T17:50:42.970Z,55.57
2018-11-23T17:53:13.090Z,54.40
2018-11-23T17:55:42.877Z,53.10
2018-11-23T17:58:12.176Z,53.27
2018-11-23T18:00:41.482Z,52.87
2018-11-23T18:03:10.747Z,52.77
2018-11-23T18:05:40.097Z,52.97
2018-11-23T18:08:09.384Z,54.77
2018-11-23T18:10:38.689Z,56.03
2018-11-23T18:13:08.055Z,55.63
2018-11-23T18:15:37.345Z,57.17
2018-11-23T18:18:07.154Z,57.93
2018-11-23T18:20:36.531Z,57.90
2018-11-23T18:23:06.424Z,56.73
2018-11-23T18:25:38.437Z,58.97
2018-11-23T18:28:07.790Z,62.23
2018-11-23T18:30:37.152Z,55.73
2018-11-23T18:33:07.819Z,57.50
2018-11-23T18:35:37.229Z,58.53
2018-11-23T18:38:06.576Z,58.60
2018-11-23T18:40:37.342Z,60.90
2018-11-23T18:43:06.097Z,59.43
2018-11-23T18:45:35.579Z,59.53
2018-11-23T18:48:05.532Z,58.60
2018-11-23T18:50:34.864Z,57.67
2018-11-23T18:53:04.231Z,58.97
2018-11-23T18:55:33.549Z,57.23
2018-11-23T18:58:02.846Z,56.00
2018-11-23T19:00:32.133Z,56.57
2018-11-23T19:03:01.458Z,57.47
2018-11-23T19:05:30.859Z,55.33
2018-11-23T19:08:00.185Z,56.33
2018-11-23T19:10:29.508Z,57.23
2018-11-23T19:12:58.784Z,59.13
2018-11-23T19:15:28.058Z,62.27
2018-11-23T19:17:57.388Z,59.90
2018-11-23T19:20:29.909Z,61.37
2018-11-23T19:22:59.325Z,60.40
2018-11-23T19:25:28.628Z,59.33
2018-11-23T19:27:57.958Z,58.33
2018-11-23T19:30:28.513Z,55.40
2018-11-23T19:32:56.907Z,57.83
2018-11-23T19:35:26.381Z,58.27
2018-11-23T19:37:55.702Z,57.30
2018-11-23T19:40:24.990Z,56.80
2018-11-23T19:42:54.297Z,57.93
2018-11-23T19:45:24.383Z,58.43
2018-11-23T19:47:53.647Z,56.70
2018-11-23T19:50:22.913Z,57.10
2018-11-23T19:52:52.248Z,57.77
2018-11-23T19:55:21.595Z,56.43
2018-11-23T19:57:51.006Z,58.20
2018-11-23T20:00:21.746Z,56.50
2018-11-23T20:02:51.091Z,58.37
2018-11-23T20:05:20.441Z,56.90
2018-11-23T20:07:51.202Z,56.43
2018-11-23T20:10:21.502Z,57.93
2018-11-23T20:12:52.244Z,55.60
2018-11-23T20:15:21.637Z,55.50
2018-11-23T20:17:50.937Z,55.40
2018-11-23T20:20:20.346Z,56.63
2018-11-23T20:22:50.444Z,57.23
2018-11-23T20:25:20.634Z,60.40
2018-11-23T20:27:51.171Z,60.53
2018-11-23T20:30:20.976Z,57.17
2018-11-23T20:32:50.426Z,59.13
2018-11-23T20:35:20.956Z,56.87
2018-11-23T20:37:50.286Z,57.77
2018-11-23T20:40:24.060Z,56.80
2018-11-23T20:42:53.382Z,58.10
2018-11-23T20:45:22.683Z,60.10
2018-11-23T20:47:51.967Z,55.70
2018-11-23T20:50:21.362Z,57.33
2018-11-23T20:52:50.855Z,55.93
2018-11-23T20:55:21.193Z,57.57
2018-11-23T20:57:50.577Z,58.13
2018-11-23T21:00:21.414Z,60.60
2018-11-23T21:02:51.778Z,57.37
2018-11-23T21:05:21.982Z,56.97
2018-11-23T21:07:52.262Z,58.70
2018-11-23T21:10:25.537Z,59.97
2018-11-23T21:12:55.374Z,57.47
2018-11-23T21:15:26.051Z,60.13
2018-11-23T21:17:55.776Z,58.27
2018-11-23T21:20:25.026Z,57.67
2018-11-23T21:22:54.328Z,58.70
2018-11-23T21:25:24.417Z,56.33
2018-11-23T21:27:53.759Z,56.87
2018-11-23T21:30:23.913Z,55.37
2018-11-23T21:32:54.564Z,56.97
2018-11-23T21:35:24.199Z,54.17
2018-11-23T21:37:53.499Z,57.73
2018-11-23T21:40:22.764Z,55.83
2018-11-23T21:42:52.239Z,56.47
2018-11-23T21:45:21.742Z,56.50
2018-11-23T21:47:50.996Z,56.43
2018-11-23T21:50:25.434Z,57.17
2018-11-23T21:52:50.544Z,55.77
2018-11-23T21:55:21.890Z,54.30
2018-11-23T21:57:51.516Z,54.17
2018-11-23T22:00:20.757Z,55.07
2018-11-23T22:02:50.156Z,54.80
2018-11-23T22:05:19.436Z,55.27
2018-11-23T22:07:48.822Z,54.77
2018-11-23T22:10:18.986Z,54.53
2018-11-23T22:12:48.376Z,55.77
2018-11-23T22:15:21.757Z,53.90
2018-11-23T22:17:52.818Z,54.03
2018-11-23T22:20:22.793Z,55.53
2018-11-23T22:22:52.136Z,53.17
2018-11-23T22:25:22.431Z,51.97
2018-11-23T22:27:51.772Z,54.83
2018-11-23T22:30:29.410Z,53.17
2018-11-23T22:32:59.061Z,52.83
2018-11-23T22:35:29.620Z,52.90
2018-11-23T22:37:59.033Z,54.03
2018-11-23T22:40:28.323Z,54.33
2018-11-23T22:42:58.670Z,54.97
2018-11-23T22:45:28.041Z,53.83
2018-11-23T22:47:57.331Z,54.73
2018-11-23T22:50:26.646Z,56.63
2018-11-23T22:52:56.118Z,57.40
2018-11-23T22:55:25.419Z,54.93
2018-11-23T22:57:54.777Z,56.97
2018-11-23T23:00:31.491Z,54.20
2018-11-23T23:03:00.777Z,56.30
2018-11-23T23:05:30.066Z,55.57
2018-11-23T23:07:59.629Z,54.37
2018-11-23T23:10:28.940Z,54.27
2018-11-23T23:12:58.210Z,53.53
2018-11-23T23:15:27.471Z,55.37
2018-11-23T23:17:56.843Z,55.63
2018-11-23T23:20:26.140Z,52.73
2018-11-23T23:22:55.505Z,52.10
2018-11-23T23:25:24.751Z,53.23
2018-11-23T23:27:54.040Z,51.93
2018-11-23T23:30:23.623Z,53.03
2018-11-23T23:32:52.848Z,55.37
2018-11-23T23:35:22.121Z,52.70
2018-11-23T23:37:51.367Z,54.67
2018-11-23T23:40:20.618Z,56.43
2018-11-23T23:42:49.930Z,56.23
2018-11-23T23:45:19.433Z,57.00
2018-11-23T23:47:48.771Z,57.40
2018-11-23T23:50:20.262Z,56.70
2018-11-23T23:52:50.091Z,57.80
2018-11-23T23:55:19.415Z,60.17
2018-11-23T23:57:49.048Z,59.97
